createdAt,value
2019-04-16T00:05:19.409Z,7.03
2019-04-16T00:07:53.894Z,7.35
2019-04-16T00:13:11.331Z,6.97
2019-04-16T00:15:42.029Z,7.40
2019-04-16T00:18:12.983Z,6.80
2019-04-16T00:20:44.507Z,7.47
2019-04-16T00:23:16.029Z,7.50
2019-04-16T00:25:45.854Z,7.35
2019-04-16T00:28:16.029Z,8.10
2019-04-16T00:30:46.316Z,7.00
2019-04-16T00:33:16.198Z,7.05
2019-04-16T00:35:46.607Z,6.95
2019-04-16T00:38:17.103Z,7.53
2019-04-16T00:40:46.976Z,6.70
2019-04-16T00:43:16.866Z,7.70
2019-04-16T00:45:46.741Z,7.10
2019-04-16T00:48:16.553Z,7.42
2019-04-16T00:50:46.365Z,7.20
2019-04-16T00:53:16.175Z,8.05
2019-04-16T00:55:45.996Z,6.92
2019-04-16T00:58:19.506Z,6.70
2019-04-16T01:00:47.546Z,8.15
2019-04-16T01:03:17.541Z,8.08
2019-04-16T01:05:47.363Z,6.83
2019-04-16T01:08:17.593Z,6.67
2019-04-16T01:10:47.418Z,7.97
2019-04-16T01:13:17.297Z,7.20
2019-04-16T01:15:47.182Z,6.87
2019-04-16T01:18:16.998Z,7.60
2019-04-16T01:20:46.813Z,7.25
2019-04-16T01:23:17.817Z,7.50
2019-04-16T01:25:48.744Z,7.05
2019-04-16T01:28:20.194Z,7.58
2019-04-16T01:31:08.410Z,7.47
2019-04-16T01:33:59.612Z,7.53
2019-04-16T01:36:31.061Z,7.97
2019-04-16T01:39:15.588Z,6.85
2019-04-16T01:41:35.552Z,6.28
2019-04-16T01:44:05.366Z,6.67
2019-04-16T01:46:35.255Z,5.53
2019-04-16T01:49:09.802Z,6.45
2019-04-16T01:51:39.282Z,5.97
2019-04-16T01:54:09.521Z,7.08
2019-04-16T01:56:39.337Z,6.65
2019-04-16T01:59:09.437Z,7.20
2019-04-16T02:01:40.331Z,6.90
2019-04-16T02:04:10.679Z,6.47
2019-04-16T02:06:40.843Z,6.67
2019-04-16T02:09:21.710Z,6.10
2019-04-16T02:11:42.916Z,6.25
2019-04-16T02:14:14.530Z,6.45
2019-04-16T02:16:44.226Z,5.78
2019-04-16T02:19:14.504Z,6.72
2019-04-16T02:21:44.717Z,6.03
2019-04-16T02:24:18.599Z,6.30
2019-04-16T02:26:46.133Z,6.70
2019-04-16T02:29:15.955Z,7.47
2019-04-16T02:31:47.928Z,7.37
2019-04-16T02:34:17.192Z,7.70
2019-04-16T02:36:47.387Z,6.20
2019-04-16T02:39:17.196Z,7.12
2019-04-16T02:41:47.019Z,6.85
2019-04-16T02:44:17.200Z,7.47
2019-04-16T02:46:47.156Z,7.45
2019-04-16T02:49:23.136Z,7.08
2019-04-16T02:51:50.031Z,6.97
2019-04-16T02:54:21.498Z,6.75
2019-04-16T02:56:53.142Z,8.10
2019-04-16T02:59:36.662Z,6.40
2019-04-16T03:02:17.046Z,6.85
2019-04-16T03:04:49.464Z,6.35
2019-04-16T03:07:19.641Z,6.35
2019-04-16T03:10:00.670Z,5.80
2019-04-16T03:12:21.667Z,7.17
2019-04-16T03:14:51.623Z,6.58
2019-04-16T03:17:28.650Z,6.50
2019-04-16T03:20:00.125Z,6.95
2019-04-16T03:22:30.583Z,6.67
2019-04-16T03:25:01.385Z,5.78
2019-04-16T03:27:31.566Z,6.80
2019-04-16T03:30:03.384Z,6.37
2019-04-16T03:32:36.123Z,5.90
2019-04-16T03:35:06.319Z,5.80
2019-04-16T03:37:36.550Z,6.17
2019-04-16T03:40:16.519Z,5.87
2019-04-16T03:42:37.870Z,5.75
2019-04-16T03:45:09.762Z,6.10
2019-04-16T03:47:39.994Z,5.55
2019-04-16T03:50:09.897Z,6.15
2019-04-16T03:52:45.513Z,6.95
2019-04-16T03:55:12.894Z,7.08
2019-04-16T03:57:42.701Z,7.03
2019-04-16T04:00:13.142Z,7.35
2019-04-16T04:02:43.414Z,7.17
2019-04-16T04:05:13.592Z,7.25
2019-04-16T04:07:44.123Z,7.80
2019-04-16T04:10:29.099Z,6.60
2019-04-16T04:12:46.632Z,7.28
2019-04-16T04:15:16.455Z,6.15
2019-04-16T04:17:46.651Z,8.03
2019-04-16T04:20:18.408Z,7.08
2019-04-16T04:22:47.897Z,7.78
2019-04-16T04:25:17.794Z,7.50
2019-04-16T04:27:47.792Z,7.92
2019-04-16T04:30:19.379Z,8.03
2019-04-16T04:32:49.190Z,7.50
2019-04-16T04:35:21.818Z,7.65
2019-04-16T04:37:50.783Z,6.95
2019-04-16T04:40:21.155Z,7.20
2019-04-16T04:42:50.980Z,6.90
2019-04-16T04:45:20.798Z,7.53
2019-04-16T04:47:51.620Z,7.50
2019-04-16T04:50:22.133Z,8.68
2019-04-16T04:52:51.962Z,8.08
2019-04-16T04:55:23.401Z,9.90
2019-04-16T04:57:53.206Z,9.83
2019-04-16T05:00:23.103Z,10.10
2019-04-16T05:02:52.986Z,10.48
2019-04-16T05:05:25.769Z,11.03
2019-04-16T05:07:59.696Z,8.90
2019-04-16T05:10:27.305Z,8.85
2019-04-16T05:12:57.127Z,9.35
2019-04-16T05:15:29.417Z,6.97
2019-04-16T05:17:58.397Z,8.05
2019-04-16T05:20:29.858Z,8.15
2019-04-16T05:22:59.814Z,8.18
2019-04-16T05:25:32.994Z,7.62
2019-04-16T05:28:01.138Z,7.90
2019-04-16T05:30:30.963Z,8.00
2019-04-16T05:33:05.166Z,8.15
2019-04-16T05:35:32.297Z,7.75
2019-04-16T05:38:02.186Z,8.23
2019-04-16T05:40:35.078Z,7.83
2019-04-16T05:43:03.449Z,8.88
2019-04-16T05:45:34.464Z,7.80
2019-04-16T05:48:04.774Z,8.30
2019-04-16T05:50:34.766Z,7.65
2019-04-16T05:53:05.477Z,7.58
2019-04-16T05:55:49.357Z,7.03
2019-04-16T05:58:18.203Z,8.43
2019-04-16T06:00:52.821Z,9.08
2019-04-16T06:03:23.186Z,9.83
2019-04-16T06:05:53.002Z,9.10
2019-04-16T06:08:22.894Z,9.03
2019-04-16T06:10:52.794Z,10.38
2019-04-16T06:13:30.049Z,9.13
2019-04-16T06:16:01.541Z,12.43
2019-04-16T06:18:42.353Z,11.50
2019-04-16T06:21:30.199Z,10.50
2019-04-16T06:24:05.144Z,10.50
2019-04-16T06:26:39.206Z,12.35
2019-04-16T06:29:13.646Z,9.85
2019-04-16T06:34:31.227Z,10.32
2019-04-16T06:37:02.700Z,10.13
2019-04-16T06:39:40.021Z,11.12
2019-04-16T06:42:11.917Z,10.65
2019-04-16T06:44:46.081Z,10.60
2019-04-16T06:47:34.033Z,11.85
2019-04-16T06:50:11.965Z,12.68
2019-04-16T06:52:59.715Z,11.85
2019-04-16T06:55:36.101Z,9.75
2019-04-16T06:58:07.380Z,11.00
2019-04-16T07:03:44.689Z,11.75
2019-04-16T07:06:36.307Z,10.05
2019-04-16T07:09:08.457Z,11.73
2019-04-16T07:11:53.270Z,9.13
2019-04-16T07:14:11.634Z,8.78
2019-04-16T07:16:42.942Z,11.20
2019-04-16T07:19:16.643Z,8.80
2019-04-16T07:21:48.732Z,10.70
2019-04-16T07:24:16.682Z,11.33
2019-04-16T07:26:48.254Z,11.80
2019-04-16T07:29:22.294Z,11.68
2019-04-16T07:32:10.307Z,12.58
2019-04-16T07:34:43.134Z,9.08
2019-04-16T07:37:26.985Z,12.15
2019-04-16T07:40:08.360Z,11.03
2019-04-16T07:42:58.944Z,11.00
2019-04-16T07:48:23.148Z,9.68
2019-04-16T07:51:10.263Z,8.55
2019-04-16T07:53:47.312Z,12.07
2019-04-16T07:59:02.960Z,8.58
2019-04-16T08:01:32.814Z,11.40
2019-04-16T08:04:03.220Z,11.10
2019-04-16T08:06:47.216Z,8.95
2019-04-16T08:09:17.367Z,9.33
2019-04-16T08:11:47.367Z,10.70
2019-04-16T08:14:17.185Z,10.72
2019-04-16T08:16:48.148Z,9.80
2019-04-16T08:19:18.164Z,11.28
2019-04-16T08:21:48.072Z,10.15
2019-04-16T08:24:24.369Z,10.45
2019-04-16T08:29:21.255Z,12.00
2019-04-16T08:31:51.073Z,11.15
2019-04-16T08:34:21.045Z,10.10
2019-04-16T08:36:50.899Z,11.15
2019-04-16T08:39:20.730Z,11.35
2019-04-16T08:41:52.395Z,12.23
2019-04-16T08:44:22.019Z,12.15
2019-04-16T08:46:51.847Z,11.70
2019-04-16T08:49:22.484Z,12.55
2019-04-16T08:51:52.869Z,11.20
2019-04-16T08:54:22.699Z,12.98
2019-04-16T08:56:52.603Z,12.50
2019-04-16T08:59:22.527Z,9.88
2019-04-16T09:01:54.516Z,11.22
2019-04-16T09:04:23.937Z,12.07
2019-04-16T09:06:53.833Z,13.38
2019-04-16T09:09:25.608Z,13.78
2019-04-16T09:11:57.360Z,12.75
2019-04-16T09:14:29.041Z,9.80
2019-04-16T09:17:00.510Z,11.95
2019-04-16T09:19:30.410Z,12.55
2019-04-16T09:22:00.237Z,10.98
2019-04-16T09:24:31.701Z,12.23
2019-04-16T09:27:19.421Z,14.60
2019-04-16T09:30:10.371Z,14.55
2019-04-16T09:32:43.521Z,14.75
2019-04-16T09:35:19.739Z,11.65
2019-04-16T09:37:52.181Z,14.93
2019-04-16T09:40:23.654Z,15.10
2019-04-16T09:42:53.551Z,11.03
2019-04-16T09:45:24.949Z,15.35
2019-04-16T09:47:57.019Z,13.93
2019-04-16T09:50:46.365Z,13.53
2019-04-16T09:55:41.302Z,12.70
2019-04-16T09:58:22.582Z,15.05
2019-04-16T10:04:01.474Z,13.00
2019-04-16T10:06:31.546Z,14.70
2019-04-16T10:09:01.397Z,14.47
2019-04-16T10:11:35.767Z,16.45
2019-04-16T10:14:04.459Z,16.02
2019-04-16T10:16:34.458Z,13.88
2019-04-16T10:19:07.828Z,13.88
2019-04-16T10:21:36.176Z,15.85
2019-04-16T10:24:07.714Z,14.68
2019-04-16T10:26:37.557Z,15.45
2019-04-16T10:29:11.956Z,15.18
2019-04-16T10:31:41.988Z,17.02
2019-04-16T10:34:11.904Z,16.30
2019-04-16T10:36:49.499Z,14.05
2019-04-16T10:39:20.933Z,17.90
2019-04-16T10:42:07.716Z,14.90
2019-04-16T10:44:55.593Z,14.68
2019-04-16T10:47:53.741Z,13.70
2019-04-16T10:50:43.639Z,13.75
2019-04-16T10:53:15.187Z,13.90
2019-04-16T10:56:02.859Z,13.93
2019-04-16T10:58:51.182Z,12.65
2019-04-16T11:01:22.653Z,13.40
2019-04-16T11:06:50.569Z,15.28
2019-04-16T11:09:20.416Z,11.00
2019-04-16T11:11:50.534Z,13.88
2019-04-16T11:14:20.534Z,11.45
2019-04-16T11:16:51.326Z,17.57
2019-04-16T11:19:21.140Z,14.10
2019-04-16T11:21:50.973Z,13.93
2019-04-16T11:24:20.894Z,13.98
2019-04-16T11:26:50.802Z,16.90
2019-04-16T11:29:20.704Z,18.20
2019-04-16T11:31:50.620Z,17.05
2019-04-16T11:34:20.510Z,14.75
2019-04-16T11:36:50.365Z,15.30
2019-04-16T11:39:20.200Z,12.00
2019-04-16T11:41:50.060Z,15.65
2019-04-16T11:44:19.876Z,12.55
2019-04-16T11:46:49.729Z,15.35
2019-04-16T11:49:21.304Z,13.90
2019-04-16T11:51:51.316Z,14.45
2019-04-16T11:54:21.187Z,12.55
2019-04-16T11:56:51.035Z,15.75
2019-04-16T11:59:20.954Z,12.70
2019-04-16T12:01:52.393Z,13.83
2019-04-16T12:07:15.480Z,14.65
2019-04-16T12:10:03.284Z,12.43
2019-04-16T12:12:45.022Z,14.07
2019-04-16T12:15:19.294Z,14.20
2019-04-16T12:20:47.229Z,14.30
2019-04-16T12:23:27.630Z,12.75
2019-04-16T12:26:14.631Z,12.55
2019-04-16T12:28:46.189Z,13.20
2019-04-16T12:31:17.678Z,11.12
2019-04-16T12:34:08.296Z,11.10
2019-04-16T12:36:58.597Z,13.75
2019-04-16T12:39:36.221Z,14.38
2019-04-16T12:42:07.846Z,15.43
2019-04-16T12:44:51.579Z,13.70
2019-04-16T12:50:10.209Z,10.10
2019-04-16T12:52:58.267Z,14.13
2019-04-16T12:55:38.332Z,10.88
2019-04-16T12:58:29.807Z,12.40
2019-04-16T13:01:19.657Z,11.48
2019-04-16T13:03:54.047Z,13.45
2019-04-16T13:06:42.111Z,15.28
2019-04-16T13:09:29.383Z,13.65
2019-04-16T13:12:15.995Z,12.60
2019-04-16T13:15:01.304Z,11.88
2019-04-16T13:20:20.393Z,9.98
2019-04-16T13:22:55.842Z,8.88
2019-04-16T13:25:30.466Z,10.38
2019-04-16T13:28:00.291Z,10.50
2019-04-16T13:30:30.105Z,9.58
2019-04-16T13:33:00.306Z,10.40
2019-04-16T13:35:30.134Z,12.05
2019-04-16T13:38:00.344Z,11.80
2019-04-16T13:40:30.571Z,14.28
2019-04-16T13:43:01.528Z,14.55
2019-04-16T13:45:33.549Z,13.80
2019-04-16T13:48:16.096Z,11.68
2019-04-16T13:50:48.890Z,12.33
2019-04-16T13:53:32.346Z,13.00
2019-04-16T13:56:03.824Z,12.82
2019-04-16T13:58:37.904Z,17.05
2019-04-16T14:01:10.434Z,13.70
2019-04-16T14:03:40.967Z,14.47
2019-04-16T14:06:11.393Z,12.40
2019-04-16T14:08:41.293Z,13.35
2019-04-16T14:11:11.771Z,11.10
2019-04-16T14:13:42.052Z,11.93
2019-04-16T14:16:14.101Z,14.35
2019-04-16T14:18:43.951Z,11.50
2019-04-16T14:21:13.766Z,13.40
2019-04-16T14:23:43.671Z,11.63
2019-04-16T14:26:13.498Z,9.93
2019-04-16T14:28:52.062Z,10.88
2019-04-16T14:31:16.970Z,12.10
2019-04-16T14:34:03.005Z,14.05
2019-04-16T14:36:32.903Z,12.95
2019-04-16T14:39:12.791Z,12.80
2019-04-16T14:41:48.657Z,12.35
2019-04-16T14:44:15.845Z,11.12
2019-04-16T14:46:45.820Z,12.65
2019-04-16T14:49:28.223Z,12.05
2019-04-16T14:52:01.801Z,11.83
2019-04-16T14:54:47.667Z,10.65
2019-04-16T14:57:19.170Z,11.25
2019-04-16T15:00:26.438Z,9.48
2019-04-16T15:03:00.625Z,10.65
2019-04-16T15:05:34.905Z,10.82
2019-04-16T15:08:12.078Z,10.82
2019-04-16T15:10:49.316Z,11.08
2019-04-16T15:13:36.226Z,11.80
2019-04-16T15:19:12.496Z,11.30
2019-04-16T15:22:00.198Z,10.05
2019-04-16T15:24:42.336Z,10.68
2019-04-16T15:27:13.769Z,10.58
2019-04-16T15:29:45.235Z,11.43
2019-04-16T15:32:19.487Z,11.75
2019-04-16T15:34:50.954Z,11.40
2019-04-16T15:37:22.772Z,11.35
2019-04-16T15:39:59.129Z,12.43
2019-04-16T15:42:31.787Z,11.93
2019-04-16T15:45:03.245Z,12.88
2019-04-16T15:47:51.173Z,13.68
2019-04-16T15:50:22.641Z,12.15
2019-04-16T15:52:54.407Z,11.73
2019-04-16T15:55:34.810Z,11.18
2019-04-16T15:58:18.314Z,10.20
2019-04-16T16:00:55.387Z,11.68
2019-04-16T16:03:43.180Z,10.98
2019-04-16T16:06:16.887Z,9.88
2019-04-16T16:08:50.975Z,9.88
2019-04-16T16:11:47.976Z,10.72
2019-04-16T16:14:17.959Z,9.65
2019-04-16T16:16:50.679Z,10.82
2019-04-16T16:19:19.290Z,12.28
2019-04-16T16:21:49.469Z,9.35
2019-04-16T16:24:19.285Z,10.55
2019-04-16T16:26:49.105Z,11.05
2019-04-16T16:29:19.241Z,10.72
2019-04-16T16:31:49.074Z,11.75
2019-04-16T16:34:18.912Z,10.78
2019-04-16T16:36:48.725Z,12.23
2019-04-16T16:39:18.660Z,11.15
2019-04-16T16:41:48.483Z,10.40
2019-04-16T16:44:18.320Z,10.82
2019-04-16T16:49:31.767Z,11.08
2019-04-16T16:52:19.708Z,11.22
2019-04-16T16:54:51.275Z,10.68
2019-04-16T16:57:22.738Z,10.25
2019-04-16T17:00:03.992Z,10.80
2019-04-16T17:02:45.264Z,11.48
2019-04-16T17:05:19.958Z,10.60
2019-04-16T17:07:50.738Z,9.50
2019-04-16T17:10:21.307Z,10.50
2019-04-16T17:12:51.121Z,8.68
2019-04-16T17:15:40.411Z,10.78
2019-04-16T17:18:10.304Z,10.15
2019-04-16T17:20:41.424Z,10.75
2019-04-16T17:23:16.457Z,10.23
2019-04-16T17:25:43.034Z,10.68
2019-04-16T17:28:13.190Z,9.75
2019-04-16T17:30:43.075Z,10.20
2019-04-16T17:33:12.908Z,10.30
2019-04-16T17:35:46.000Z,9.83
2019-04-16T17:38:14.598Z,9.00
2019-04-16T17:41:00.107Z,10.05
2019-04-16T17:43:59.665Z,9.75
2019-04-16T17:46:37.072Z,10.78
2019-04-16T17:49:08.609Z,10.98
2019-04-16T17:51:42.824Z,10.45
2019-04-16T17:54:30.764Z,11.43
2019-04-16T17:57:11.046Z,10.35
2019-04-16T17:59:42.496Z,11.00
2019-04-16T18:02:17.112Z,10.85
2019-04-16T18:04:48.583Z,10.90
2019-04-16T18:07:36.629Z,11.25
2019-04-16T18:10:11.478Z,9.88
2019-04-16T18:13:00.004Z,10.32
2019-04-16T18:15:42.759Z,11.38
2019-04-16T18:18:16.925Z,10.10
2019-04-16T18:20:57.277Z,10.50
2019-04-16T18:23:29.985Z,11.00
2019-04-16T18:26:01.458Z,12.35
2019-04-16T18:29:02.217Z,11.48
2019-04-16T18:31:43.421Z,9.88
2019-04-16T18:37:35.951Z,11.10
2019-04-16T18:40:07.857Z,10.38
2019-04-16T18:42:55.657Z,9.95
2019-04-16T18:45:30.181Z,10.68
2019-04-16T18:50:35.151Z,11.28
2019-04-16T18:53:09.594Z,12.07
2019-04-16T18:55:36.489Z,11.25
2019-04-16T18:58:06.402Z,12.00
2019-04-16T19:03:21.605Z,11.80
2019-04-16T19:05:52.427Z,12.00
2019-04-16T19:08:22.384Z,13.28
2019-04-16T19:10:52.795Z,11.95
2019-04-16T19:13:22.803Z,11.80
2019-04-16T19:15:52.667Z,11.28
2019-04-16T19:18:22.564Z,12.43
2019-04-16T19:20:53.142Z,12.58
2019-04-16T19:23:24.382Z,12.28
2019-04-16T19:25:55.441Z,12.73
2019-04-16T19:28:25.872Z,12.88
2019-04-16T19:30:55.994Z,11.97
2019-04-16T19:33:25.826Z,11.83
2019-04-16T19:35:55.639Z,11.80
2019-04-16T19:38:25.529Z,11.20
2019-04-16T19:40:55.420Z,12.25
2019-04-16T19:43:28.076Z,11.80
2019-04-16T19:45:56.829Z,12.70
2019-04-16T19:48:35.399Z,12.10
2019-04-16T19:50:58.187Z,10.25
2019-04-16T19:53:30.690Z,11.70
2019-04-16T19:56:00.505Z,11.57
2019-04-16T19:58:30.341Z,12.13
2019-04-16T20:01:00.171Z,12.95
2019-04-16T20:03:31.302Z,12.33
2019-04-16T20:06:01.687Z,12.37
2019-04-16T20:08:36.970Z,12.58
2019-04-16T20:11:04.502Z,12.68
2019-04-16T20:13:34.705Z,12.50
2019-04-16T20:16:04.573Z,12.50
2019-04-16T20:18:49.981Z,11.25
2019-04-16T20:21:05.965Z,11.48
2019-04-16T20:23:35.958Z,11.93
2019-04-16T20:26:06.061Z,12.33
2019-04-16T20:28:35.953Z,11.53
2019-04-16T20:31:05.777Z,12.25
2019-04-16T20:33:35.671Z,12.00
2019-04-16T20:36:05.508Z,13.65
2019-04-16T20:38:35.638Z,11.08
2019-04-16T20:41:06.010Z,13.30
2019-04-16T20:43:35.978Z,12.05
2019-04-16T20:46:06.134Z,14.55
2019-04-16T20:48:36.543Z,16.05
2019-04-16T20:51:06.440Z,18.45
2019-04-16T20:53:38.128Z,19.00
2019-04-16T20:56:10.490Z,17.10
2019-04-16T20:58:39.631Z,16.02
2019-04-16T21:01:09.589Z,15.00
2019-04-16T21:03:39.419Z,14.18
2019-04-16T21:06:09.655Z,13.05
2019-04-16T21:08:40.637Z,13.22
2019-04-16T21:11:10.466Z,13.58
2019-04-16T21:13:40.286Z,11.12
2019-04-16T21:16:10.187Z,13.32
2019-04-16T21:18:40.005Z,13.08
2019-04-16T21:21:09.896Z,13.08
2019-04-16T21:23:39.726Z,12.95
2019-04-16T21:26:09.617Z,13.13
2019-04-16T21:28:41.083Z,12.82
2019-04-16T21:31:13.596Z,12.95
2019-04-16T21:33:52.289Z,13.55
2019-04-16T21:36:40.116Z,14.85
2019-04-16T21:39:11.661Z,13.70
2019-04-16T21:41:43.041Z,13.95
2019-04-16T21:44:13.369Z,13.40
2019-04-16T21:46:44.147Z,14.20
2019-04-16T21:49:13.956Z,14.05
2019-04-16T21:52:01.889Z,13.30
2019-04-16T21:54:31.730Z,12.78
2019-04-16T21:57:01.559Z,13.13
2019-04-16T21:59:32.359Z,12.70
2019-04-16T22:02:05.338Z,13.13
2019-04-16T22:04:35.713Z,12.40
2019-04-16T22:07:08.257Z,14.87
2019-04-16T22:09:49.395Z,13.90
2019-04-16T22:12:19.221Z,14.70
2019-04-16T22:14:51.006Z,15.70
2019-04-16T22:17:20.682Z,16.57
2019-04-16T22:19:54.465Z,15.83
2019-04-16T22:22:22.035Z,15.78
2019-04-16T22:24:54.826Z,16.02
2019-04-16T22:27:23.362Z,15.55
2019-04-16T22:29:53.203Z,15.75
2019-04-16T22:32:27.011Z,15.40
2019-04-16T22:34:56.227Z,13.03
2019-04-16T22:37:26.091Z,15.15
2019-04-16T22:40:00.565Z,13.05
2019-04-16T22:42:38.117Z,13.48
2019-04-16T22:45:21.596Z,14.23
2019-04-16T22:47:53.074Z,14.38
2019-04-16T22:50:23.304Z,14.38
2019-04-16T22:52:53.133Z,14.53
2019-04-16T22:55:24.941Z,14.00
2019-04-16T22:57:54.397Z,14.93
2019-04-16T23:00:35.044Z,14.55
2019-04-16T23:03:04.938Z,14.35
2019-04-16T23:05:34.761Z,15.80
2019-04-16T23:08:04.776Z,15.03
2019-04-16T23:10:34.592Z,14.60
2019-04-16T23:13:04.411Z,15.93
2019-04-16T23:15:34.310Z,14.38
2019-04-16T23:18:04.310Z,14.43
2019-04-16T23:20:36.949Z,13.85
2019-04-16T23:23:05.582Z,13.43
2019-04-16T23:25:35.733Z,13.80
2019-04-16T23:28:09.795Z,12.55
2019-04-16T23:30:37.061Z,13.48
2019-04-16T23:33:07.602Z,13.30
2019-04-16T23:35:43.335Z,15.15
2019-04-16T23:38:08.881Z,15.38
2019-04-16T23:40:40.881Z,14.93
2019-04-16T23:43:29.827Z,14.00
2019-04-16T23:46:17.644Z,14.20
2019-04-16T23:49:01.197Z,14.30
2019-04-16T23:51:41.628Z,14.43
2019-04-16T23:54:18.965Z,13.88
2019-04-16T23:56:53.899Z,15.15
2019-04-16T23:59:32.623Z,14.75
